createdAt,value
2022-08-11T00:00:36.405Z,25.88
2022-08-11T00:03:43.332Z,25.83
2022-08-11T00:06:40.781Z,25.85
2022-08-11T00:09:39.173Z,25.81
2022-08-11T00:12:38.948Z,25.81
2022-08-11T00:15:08.473Z,25.83
2022-08-11T00:17:41.717Z,25.83
2022-08-11T00:24:06.089Z,25.88
2022-08-11T00:26:40.120Z,25.89
2022-08-11T00:29:37.100Z,25.91
2022-08-11T00:32:35.500Z,25.85
2022-08-11T00:35:51.906Z,25.88
2022-08-11T00:38:49.003Z,25.82
2022-08-11T00:41:43.410Z,25.82
2022-08-11T00:45:10.906Z,25.77
2022-08-11T00:52:07.006Z,25.64
2022-08-11T00:55:12.549Z,25.62
2022-08-11T01:01:38.102Z,25.49
2022-08-11T01:04:44.353Z,25.44
2022-08-11T01:08:02.184Z,25.39
2022-08-11T01:10:52.749Z,25.35
2022-08-11T01:14:06.287Z,25.34
2022-08-11T01:16:45.625Z,25.28
2022-08-11T01:20:45.044Z,25.26
2022-08-11T01:22:48.247Z,25.21
2022-08-11T01:26:07.194Z,25.23
2022-08-11T01:29:08.406Z,25.19
2022-08-11T01:32:13.393Z,25.12
2022-08-11T01:38:18.768Z,25.00
2022-08-11T01:45:39.202Z,24.93
2022-08-11T01:50:06.967Z,24.89
2022-08-11T01:56:11.026Z,24.85
2022-08-11T01:59:16.402Z,24.85
2022-08-11T02:14:09.049Z,24.76
2022-08-11T02:17:15.695Z,24.73
2022-08-11T02:24:09.368Z,24.68
2022-08-11T02:32:14.226Z,24.59
2022-08-11T02:35:09.315Z,24.56
2022-08-11T02:38:10.877Z,24.49
2022-08-11T02:40:44.983Z,24.48
2022-08-11T02:43:13.343Z,24.46
2022-08-11T02:50:10.892Z,24.43
2022-08-11T02:55:56.461Z,24.41
2022-08-11T02:57:11.483Z,24.37
2022-08-11T03:00:13.475Z,24.36
2022-08-11T03:06:20.806Z,24.27
2022-08-11T03:09:09.386Z,24.24
2022-08-11T03:12:19.498Z,24.23
2022-08-11T03:22:10.982Z,24.15
2022-08-11T03:24:57.280Z,24.12
2022-08-11T03:28:29.676Z,24.08
2022-08-11T03:32:10.952Z,24.06
2022-08-11T03:35:21.158Z,24.03
2022-08-11T03:38:16.216Z,24.00
2022-08-11T03:42:01.824Z,23.98
2022-08-11T03:45:15.166Z,23.95
2022-08-11T03:48:21.073Z,23.91
2022-08-11T03:51:20.026Z,23.89
2022-08-11T03:54:13.262Z,23.88
2022-08-11T03:57:18.397Z,23.84
2022-08-11T04:01:16.622Z,23.80
2022-08-11T04:04:11.900Z,23.76
2022-08-11T04:07:17.611Z,23.73
2022-08-11T04:10:42.242Z,23.71
2022-08-11T04:13:59.342Z,23.64
2022-08-11T04:16:43.929Z,23.60
2022-08-11T04:19:42.597Z,23.55
2022-08-11T04:22:39.703Z,23.53
2022-08-11T04:25:17.965Z,23.47
2022-08-11T04:28:50.379Z,23.42
2022-08-11T04:32:20.490Z,23.40
2022-08-11T04:35:16.931Z,23.33
2022-08-11T04:38:23.214Z,23.31
2022-08-11T04:42:02.326Z,23.29
2022-08-11T04:45:14.200Z,23.25
2022-08-11T04:49:24.188Z,23.18
2022-08-11T04:52:41.708Z,23.13
2022-08-11T04:55:40.875Z,23.12
2022-08-11T04:59:12.368Z,23.12
2022-08-11T05:02:17.329Z,23.12
2022-08-11T05:05:42.003Z,23.04
2022-08-11T05:09:12.295Z,23.01
2022-08-11T05:11:43.096Z,22.95
2022-08-11T05:26:45.381Z,22.84
2022-08-11T05:26:47.916Z,22.93
2022-08-11T05:29:25.946Z,22.78
2022-08-11T05:32:42.509Z,22.75
2022-08-11T05:35:18.444Z,22.68
2022-08-11T05:38:44.295Z,22.55
2022-08-11T05:41:36.641Z,22.32
2022-08-11T05:44:42.044Z,22.21
2022-08-11T05:47:42.787Z,22.10
2022-08-11T05:50:41.319Z,22.00
2022-08-11T05:53:46.130Z,21.84
2022-08-11T05:56:45.238Z,21.67
2022-08-11T05:59:19.515Z,21.54
2022-08-11T06:02:13.819Z,21.51
2022-08-11T06:07:48.536Z,21.49
2022-08-11T06:13:33.574Z,21.38
2022-08-11T06:17:19.653Z,21.37
2022-08-11T06:20:16.581Z,21.38
2022-08-11T06:23:13.981Z,21.36
2022-08-11T06:25:43.289Z,21.31
2022-08-11T06:28:20.583Z,21.25
2022-08-11T06:31:32.330Z,21.19
2022-08-11T06:34:32.016Z,21.12
2022-08-11T06:37:44.712Z,21.07
2022-08-11T06:40:42.807Z,21.01
2022-08-11T06:43:21.346Z,21.00
2022-08-11T06:46:28.332Z,20.96
2022-08-11T06:50:11.679Z,20.99
2022-08-11T06:56:43.698Z,21.01
2022-08-11T06:59:43.655Z,20.99
2022-08-11T07:02:26.868Z,20.97
2022-08-11T07:05:22.569Z,20.99
2022-08-11T07:08:34.623Z,21.20
2022-08-11T07:12:03.741Z,21.40
2022-08-11T07:16:10.717Z,21.62
2022-08-11T07:18:47.835Z,21.74
2022-08-11T07:22:18.274Z,21.82
2022-08-11T07:25:40.061Z,21.78
2022-08-11T07:28:44.329Z,21.51
2022-08-11T07:32:12.655Z,21.23
2022-08-11T07:35:18.498Z,21.04
2022-08-11T07:38:01.676Z,20.95
2022-08-11T07:40:47.515Z,20.98
2022-08-11T07:43:16.428Z,21.09
2022-08-11T07:46:21.814Z,21.07
2022-08-11T07:49:09.447Z,21.00
2022-08-11T07:52:14.749Z,21.01
2022-08-11T07:58:19.768Z,20.96
2022-08-11T08:01:43.284Z,20.81
2022-08-11T08:04:38.273Z,20.54
2022-08-11T08:07:42.983Z,20.39
2022-08-11T08:10:40.835Z,20.22
2022-08-11T08:13:34.231Z,20.15
2022-08-11T08:16:42.174Z,20.13
2022-08-11T08:21:48.852Z,20.00
2022-08-11T08:24:17.700Z,19.90
2022-08-11T08:27:07.427Z,19.84
2022-08-11T08:30:15.426Z,19.87
2022-08-11T08:32:46.627Z,19.85
2022-08-11T08:35:16.070Z,19.83
2022-08-11T08:37:46.981Z,19.80
2022-08-11T08:40:16.618Z,19.80
2022-08-11T08:43:13.455Z,19.84
2022-08-11T08:45:45.441Z,19.83
2022-08-11T08:48:21.502Z,19.85
2022-08-11T08:51:54.820Z,19.84
2022-08-11T08:54:43.507Z,19.60
2022-08-11T08:57:16.464Z,19.51
2022-08-11T08:59:52.449Z,19.45
2022-08-11T09:02:34.171Z,19.38
2022-08-11T09:05:22.100Z,19.33
2022-08-11T09:08:20.310Z,19.29
2022-08-11T09:11:13.946Z,19.24
2022-08-11T09:14:04.852Z,19.17
2022-08-11T09:16:45.220Z,19.15
2022-08-11T09:19:19.608Z,19.12
2022-08-11T09:22:33.024Z,19.10
2022-08-11T09:25:35.827Z,19.06
2022-08-11T09:28:05.894Z,18.99
2022-08-11T09:31:13.365Z,18.96
2022-08-11T09:33:45.653Z,18.90
2022-08-11T09:36:43.839Z,18.88
2022-08-11T09:39:43.656Z,18.84
2022-08-11T09:42:16.557Z,18.80
2022-08-11T09:45:13.290Z,18.79
2022-08-11T09:47:46.306Z,18.80
2022-08-11T09:50:17.610Z,18.79
2022-08-11T09:53:16.862Z,18.80
2022-08-11T09:55:45.176Z,18.84
2022-08-11T09:58:42.482Z,18.85
2022-08-11T10:01:08.753Z,18.86
2022-08-11T10:04:21.782Z,18.91
2022-08-11T10:07:15.386Z,18.88
2022-08-11T10:10:23.805Z,18.88
2022-08-11T10:14:10.066Z,18.86
2022-08-11T10:16:29.146Z,18.87
2022-08-11T10:19:20.290Z,18.85
2022-08-11T10:22:46.539Z,18.85
2022-08-11T10:25:34.251Z,18.81
2022-08-11T10:29:02.563Z,18.81
2022-08-11T10:32:04.416Z,18.72
2022-08-11T10:34:57.842Z,18.55
2022-08-11T10:40:47.639Z,18.50
2022-08-11T10:44:01.779Z,18.47
2022-08-11T10:47:03.439Z,18.49
2022-08-11T10:54:07.038Z,18.44
2022-08-11T10:57:04.926Z,18.42
2022-08-11T10:59:43.688Z,18.43
2022-08-11T11:06:13.277Z,18.43
2022-08-11T11:08:57.769Z,18.38
2022-08-11T11:12:42.706Z,18.27
2022-08-11T11:16:14.406Z,18.18
2022-08-11T11:18:46.247Z,18.15
2022-08-11T11:21:49.849Z,18.35
2022-08-11T11:25:17.313Z,18.40
2022-08-11T11:31:57.220Z,18.31
2022-08-11T11:34:53.774Z,18.29
2022-08-11T11:38:03.997Z,18.24
2022-08-11T11:41:12.124Z,18.16
2022-08-11T11:43:43.865Z,18.03
2022-08-11T11:46:15.415Z,17.92
2022-08-11T11:48:44.705Z,17.89
2022-08-11T11:51:16.313Z,17.83
2022-08-11T11:53:46.334Z,17.78
2022-08-11T12:01:59.882Z,17.84
2022-08-11T12:04:49.654Z,17.92
2022-08-11T12:11:46.021Z,18.12
2022-08-11T12:20:46.344Z,17.98
2022-08-11T12:23:34.842Z,17.93
2022-08-11T12:30:21.697Z,17.56
2022-08-11T12:32:53.761Z,17.46
2022-08-11T12:35:23.503Z,17.43
2022-08-11T12:42:55.549Z,17.73
2022-08-11T13:28:25.297Z,17.74
2022-08-11T13:33:29.972Z,17.78
2022-08-11T13:42:19.007Z,17.32
2022-08-11T13:44:48.578Z,17.11
2022-08-11T13:48:25.029Z,16.97
2022-08-11T13:51:34.433Z,17.01
2022-08-11T13:54:49.408Z,17.10
2022-08-11T14:04:50.462Z,17.15
2022-08-11T14:17:12.356Z,17.13
2022-08-11T14:26:07.289Z,17.49
2022-08-11T14:28:43.988Z,17.63
2022-08-11T14:31:16.263Z,17.72
2022-08-11T14:34:00.107Z,17.81
2022-08-11T14:37:18.580Z,17.92
2022-08-11T14:39:51.569Z,17.98
2022-08-11T14:42:42.518Z,18.02
2022-08-11T14:48:18.721Z,18.17
2022-08-11T14:50:48.075Z,18.24
2022-08-11T14:53:18.846Z,18.32
2022-08-11T14:56:06.874Z,18.36
2022-08-11T14:58:41.645Z,18.36
2022-08-11T15:01:31.188Z,18.39
2022-08-11T15:04:34.577Z,18.43
2022-08-11T15:06:50.466Z,18.44
2022-08-11T15:09:19.742Z,18.41
2022-08-11T15:12:06.854Z,18.40
2022-08-11T15:15:14.481Z,18.38
2022-08-11T15:17:47.226Z,18.40
2022-08-11T15:20:40.281Z,18.50
2022-08-11T15:23:41.969Z,18.59
2022-08-11T15:26:17.113Z,18.58
2022-08-11T15:29:40.815Z,18.63
2022-08-11T15:32:42.485Z,18.77
2022-08-11T15:38:35.717Z,19.12
2022-08-11T15:41:44.020Z,19.23
2022-08-11T15:50:11.245Z,19.43
2022-08-11T15:53:38.585Z,19.64
2022-08-11T15:57:05.664Z,19.80
2022-08-11T16:22:25.559Z,20.90
2022-08-11T16:27:02.079Z,20.97
2022-08-11T16:52:57.359Z,21.84
2022-08-11T16:55:52.611Z,21.92
2022-08-11T16:58:36.573Z,21.90
2022-08-11T17:01:11.663Z,21.96
2022-08-11T17:04:06.821Z,22.06
2022-08-11T17:09:52.755Z,22.14
2022-08-11T17:16:24.309Z,22.43
2022-08-11T17:20:40.019Z,22.49
2022-08-11T17:22:40.828Z,22.70
2022-08-11T17:25:22.489Z,22.82
2022-08-11T17:27:56.902Z,22.80
2022-08-11T17:30:51.065Z,22.71
2022-08-11T17:33:39.549Z,22.80
2022-08-11T17:36:12.106Z,22.84
2022-08-11T17:38:54.871Z,22.90
2022-08-11T17:41:42.543Z,22.96
2022-08-11T17:44:41.132Z,22.93
2022-08-11T17:47:42.854Z,23.02
2022-08-11T17:50:22.613Z,23.09
2022-08-11T17:59:58.708Z,23.24
2022-08-11T18:06:39.645Z,23.61
2022-08-11T18:52:58.130Z,24.58
2022-08-11T18:59:18.505Z,24.83
2022-08-11T19:02:27.968Z,25.02
2022-08-11T19:05:17.953Z,25.20
2022-08-11T19:08:10.422Z,25.46
2022-08-11T19:11:03.285Z,25.67
2022-08-11T19:13:54.449Z,25.82
2022-08-11T19:16:47.247Z,25.93
2022-08-11T19:20:02.124Z,26.04
2022-08-11T19:23:23.118Z,26.24
2022-08-11T19:26:09.442Z,26.22
2022-08-11T19:30:08.016Z,26.27
2022-08-11T19:32:25.339Z,26.55
2022-08-11T19:35:13.633Z,26.31
2022-08-11T19:38:10.217Z,26.38
2022-08-11T19:40:59.909Z,26.43
2022-08-11T19:43:51.784Z,26.08
2022-08-11T19:46:44.051Z,25.73
2022-08-11T19:49:31.504Z,25.60
2022-08-11T19:52:19.018Z,25.54
2022-08-11T19:55:06.027Z,25.40
2022-08-11T19:57:56.399Z,25.37
2022-08-11T20:00:43.703Z,25.32
2022-08-11T20:03:32.051Z,25.34
2022-08-11T20:06:26.111Z,25.36
2022-08-11T20:09:18.786Z,25.49
2022-08-11T20:12:12.709Z,25.80
2022-08-11T20:15:02.042Z,26.33
2022-08-11T20:17:57.261Z,26.35
2022-08-11T20:20:46.500Z,26.41
2022-08-11T20:23:35.565Z,26.72
2022-08-11T20:26:31.901Z,27.04
2022-08-11T20:29:19.753Z,26.95
2022-08-11T20:32:09.643Z,26.62
2022-08-11T20:34:59.020Z,26.34
2022-08-11T20:37:51.092Z,26.23
2022-08-11T20:40:43.379Z,26.53
2022-08-11T20:44:07.091Z,26.88
2022-08-11T20:46:44.452Z,27.19
2022-08-11T20:49:45.275Z,27.40
2022-08-11T20:55:53.684Z,26.77
2022-08-11T20:59:13.905Z,26.52
2022-08-11T21:01:52.113Z,26.54
2022-08-11T21:04:53.903Z,26.48
2022-08-11T21:07:50.301Z,26.38
2022-08-11T21:10:47.693Z,26.35
2022-08-11T21:13:42.137Z,26.31
2022-08-11T21:16:29.824Z,26.25
2022-08-11T21:20:06.654Z,26.64
2022-08-11T21:22:59.073Z,27.07
2022-08-11T21:25:59.312Z,27.46
2022-08-11T21:28:48.489Z,27.57
2022-08-11T21:31:37.464Z,27.35
2022-08-11T21:34:25.587Z,27.35
2022-08-11T21:37:12.869Z,27.35
2022-08-11T21:40:02.745Z,26.98
2022-08-11T21:42:53.821Z,27.01
2022-08-11T21:45:42.533Z,27.48
2022-08-11T21:48:31.507Z,27.91
2022-08-11T21:51:18.933Z,27.88
2022-08-11T21:54:06.487Z,28.07
2022-08-11T21:56:53.626Z,28.36
2022-08-11T21:59:56.773Z,28.55
2022-08-11T22:02:44.798Z,28.30
2022-08-11T22:05:43.579Z,27.94
2022-08-11T22:08:30.470Z,27.72
2022-08-11T22:11:32.282Z,27.78
2022-08-11T22:14:21.204Z,27.77
2022-08-11T22:17:08.409Z,27.45
2022-08-11T22:19:57.163Z,27.34
2022-08-11T22:22:51.213Z,27.17
2022-08-11T22:25:50.907Z,26.88
2022-08-11T22:28:39.739Z,26.86
2022-08-11T22:31:27.734Z,26.62
2022-08-11T22:34:14.821Z,26.44
2022-08-11T22:37:03.454Z,26.25
2022-08-11T22:40:01.561Z,26.10
2022-08-11T22:42:52.498Z,25.94
2022-08-11T22:45:40.304Z,25.82
2022-08-11T22:48:28.681Z,25.79
2022-08-11T22:51:17.588Z,25.74
2022-08-11T22:54:06.946Z,25.69
2022-08-11T22:56:54.189Z,25.63
2022-08-11T22:59:42.400Z,25.62
2022-08-11T23:02:30.823Z,25.65
2022-08-11T23:05:18.528Z,25.60
2022-08-11T23:08:05.373Z,25.50
2022-08-11T23:10:53.081Z,25.46
2022-08-11T23:13:40.705Z,25.45
2022-08-11T23:16:27.848Z,25.41
2022-08-11T23:19:15.051Z,25.34
2022-08-11T23:22:23.381Z,25.29
2022-08-11T23:25:25.359Z,25.23
2022-08-11T23:28:12.463Z,25.21
2022-08-11T23:31:00.637Z,25.23
2022-08-11T23:33:50.568Z,25.20
2022-08-11T23:36:47.296Z,25.17
2022-08-11T23:39:36.571Z,25.14
2022-08-11T23:42:24.222Z,25.13
2022-08-11T23:45:10.802Z,25.08
2022-08-11T23:48:00.096Z,25.09
2022-08-11T23:50:48.075Z,25.10
2022-08-11T23:53:35.259Z,25.08
2022-08-11T23:56:25.239Z,25.05
2022-08-11T23:59:16.319Z,25.00
